sensor_id;sensor_type;location;lat;lon;timestamp;P1;durP1;ratioP1;P2;durP2;ratioP2
8895;SDS011;4484;48.928;10.066;2023-11-21T00:00:01;5.03;;;2.37;;
8895;SDS011;4484;48.928;10.066;2023-11-21T00:02:38;21.03;;;6.07;;
8895;SDS011;4484;48.928;10.066;2023-11-21T00:05:08;11.13;;;5.13;;
8895;SDS011;4484;48.928;10.066;2023-11-21T00:07:36;10.37;;;3.90;;
8895;SDS011;4484;48.928;10.066;2023-11-21T00:10:04;5.97;;;2.97;;
8895;SDS011;4484;48.928;10.066;2023-11-21T00:12:32;4.53;;;2.50;;
8895;SDS011;4484;48.928;10.066;2023-11-21T00:14:59;7.17;;;2.37;;
8895;SDS011;4484;48.928;10.066;2023-11-21T00:17:28;6.17;;;2.67;;
8895;SDS011;4484;48.928;10.066;2023-11-21T00:19:55;7.53;;;2.20;;
8895;SDS011;4484;48.928;10.066;2023-11-21T00:22:22;7.93;;;2.60;;
8895;SDS011;4484;48.928;10.066;2023-11-21T00:24:49;4.10;;;1.50;;
8895;SDS011;4484;48.928;10.066;2023-11-21T00:27:16;5.33;;;1.90;;
8895;SDS011;4484;48.928;10.066;2023-11-21T00:29:42;3.57;;;2.33;;
8895;SDS011;4484;48.928;10.066;2023-11-21T00:32:11;4.60;;;1.53;;
8895;SDS011;4484;48.928;10.066;2023-11-21T00:34:38;4.07;;;2.00;;
8895;SDS011;4484;48.928;10.066;2023-11-21T00:37:05;2.63;;;1.40;;
8895;SDS011;4484;48.928;10.066;2023-11-21T00:39:32;5.53;;;1.87;;
8895;SDS011;4484;48.928;10.066;2023-11-21T00:41:59;7.77;;;1.57;;
8895;SDS011;4484;48.928;10.066;2023-11-21T00:44:26;3.80;;;1.50;;
8895;SDS011;4484;48.928;10.066;2023-11-21T00:46:53;5.83;;;1.70;;
8895;SDS011;4484;48.928;10.066;2023-11-21T00:49:21;4.00;;;1.83;;
8895;SDS011;4484;48.928;10.066;2023-11-21T00:51:48;3.70;;;1.37;;
8895;SDS011;4484;48.928;10.066;2023-11-21T00:54:15;4.97;;;1.57;;
8895;SDS011;4484;48.928;10.066;2023-11-21T00:56:43;4.23;;;1.30;;
8895;SDS011;4484;48.928;10.066;2023-11-21T00:59:10;4.37;;;1.10;;
8895;SDS011;4484;48.928;10.066;2023-11-21T01:01:40;4.57;;;1.30;;
8895;SDS011;4484;48.928;10.066;2023-11-21T01:04:07;6.50;;;1.30;;
8895;SDS011;4484;48.928;10.066;2023-11-21T01:06:34;2.37;;;1.10;;
8895;SDS011;4484;48.928;10.066;2023-11-21T01:09:01;2.43;;;1.10;;
8895;SDS011;4484;48.928;10.066;2023-11-21T01:11:30;1.30;;;1.03;;
8895;SDS011;4484;48.928;10.066;2023-11-21T01:13:57;1.67;;;0.90;;
8895;SDS011;4484;48.928;10.066;2023-11-21T01:16:26;1.37;;;0.90;;
8895;SDS011;4484;48.928;10.066;2023-11-21T01:18:55;1.60;;;0.90;;
8895;SDS011;4484;48.928;10.066;2023-11-21T01:21:22;1.33;;;0.90;;
8895;SDS011;4484;48.928;10.066;2023-11-21T01:23:49;2.23;;;1.07;;
8895;SDS011;4484;48.928;10.066;2023-11-21T01:26:16;1.27;;;0.67;;
8895;SDS011;4484;48.928;10.066;2023-11-21T01:28:43;1.23;;;0.60;;
8895;SDS011;4484;48.928;10.066;2023-11-21T01:31:10;2.53;;;1.00;;
8895;SDS011;4484;48.928;10.066;2023-11-21T01:33:37;1.73;;;0.80;;
8895;SDS011;4484;48.928;10.066;2023-11-21T01:36:06;1.57;;;1.10;;
8895;SDS011;4484;48.928;10.066;2023-11-21T01:38:33;3.00;;;1.10;;
8895;SDS011;4484;48.928;10.066;2023-11-21T01:41:01;3.33;;;1.27;;
8895;SDS011;4484;48.928;10.066;2023-11-21T01:43:28;4.30;;;1.13;;
8895;SDS011;4484;48.928;10.066;2023-11-21T01:45:58;1.97;;;0.97;;
8895;SDS011;4484;48.928;10.066;2023-11-21T01:48:25;4.23;;;0.93;;
8895;SDS011;4484;48.928;10.066;2023-11-21T01:50:54;2.80;;;0.80;;
8895;SDS011;4484;48.928;10.066;2023-11-21T01:53:21;3.07;;;1.10;;
8895;SDS011;4484;48.928;10.066;2023-11-21T01:55:50;3.50;;;1.07;;
8895;SDS011;4484;48.928;10.066;2023-11-21T01:58:20;3.40;;;1.27;;
8895;SDS011;4484;48.928;10.066;2023-11-21T02:00:48;3.27;;;1.23;;
8895;SDS011;4484;48.928;10.066;2023-11-21T02:03:17;6.30;;;0.90;;
8895;SDS011;4484;48.928;10.066;2023-11-21T02:05:44;3.23;;;0.90;;
8895;SDS011;4484;48.928;10.066;2023-11-21T02:08:11;3.53;;;1.13;;
8895;SDS011;4484;48.928;10.066;2023-11-21T02:10:38;2.73;;;1.20;;
8895;SDS011;4484;48.928;10.066;2023-11-21T02:13:05;6.07;;;2.03;;
8895;SDS011;4484;48.928;10.066;2023-11-21T02:15:32;2.03;;;1.00;;
8895;SDS011;4484;48.928;10.066;2023-11-21T02:17:59;5.07;;;1.33;;
8895;SDS011;4484;48.928;10.066;2023-11-21T02:20:27;5.07;;;1.43;;
8895;SDS011;4484;48.928;10.066;2023-11-21T02:22:56;4.60;;;1.10;;
8895;SDS011;4484;48.928;10.066;2023-11-21T02:25:28;5.47;;;1.10;;
8895;SDS011;4484;48.928;10.066;2023-11-21T02:27:57;4.33;;;1.30;;
8895;SDS011;4484;48.928;10.066;2023-11-21T02:30:26;5.10;;;1.37;;
8895;SDS011;4484;48.928;10.066;2023-11-21T02:32:59;2.90;;;1.40;;
8895;SDS011;4484;48.928;10.066;2023-11-21T02:35:27;4.00;;;1.40;;
8895;SDS011;4484;48.928;10.066;2023-11-21T02:37:54;3.40;;;1.50;;
8895;SDS011;4484;48.928;10.066;2023-11-21T02:40:23;2.47;;;1.40;;
8895;SDS011;4484;48.928;10.066;2023-11-21T02:42:54;4.40;;;1.70;;
8895;SDS011;4484;48.928;10.066;2023-11-21T02:45:21;3.27;;;1.57;;
8895;SDS011;4484;48.928;10.066;2023-11-21T02:47:50;2.90;;;1.53;;
8895;SDS011;4484;48.928;10.066;2023-11-21T02:50:17;2.37;;;1.13;;
8895;SDS011;4484;48.928;10.066;2023-11-21T02:52:45;2.60;;;1.57;;
8895;SDS011;4484;48.928;10.066;2023-11-21T02:55:13;2.97;;;1.50;;
8895;SDS011;4484;48.928;10.066;2023-11-21T02:57:40;2.93;;;1.50;;
8895;SDS011;4484;48.928;10.066;2023-11-21T03:00:07;4.40;;;1.63;;
8895;SDS011;4484;48.928;10.066;2023-11-21T03:02:36;3.33;;;1.50;;
8895;SDS011;4484;48.928;10.066;2023-11-21T03:05:06;6.23;;;1.50;;
8895;SDS011;4484;48.928;10.066;2023-11-21T03:07:39;2.87;;;1.67;;
8895;SDS011;4484;48.928;10.066;2023-11-21T03:10:07;2.63;;;1.60;;
8895;SDS011;4484;48.928;10.066;2023-11-21T03:12:38;4.20;;;1.90;;
8895;SDS011;4484;48.928;10.066;2023-11-21T03:15:06;1.47;;;1.37;;
8895;SDS011;4484;48.928;10.066;2023-11-21T03:17:33;2.20;;;1.80;;
8895;SDS011;4484;48.928;10.066;2023-11-21T03:20:02;6.13;;;1.43;;
8895;SDS011;4484;48.928;10.066;2023-11-21T03:22:30;3.27;;;1.60;;
8895;SDS011;4484;48.928;10.066;2023-11-21T03:24:57;3.27;;;1.60;;
8895;SDS011;4484;48.928;10.066;2023-11-21T03:27:25;2.53;;;1.67;;
8895;SDS011;4484;48.928;10.066;2023-11-21T03:29:52;4.97;;;1.97;;
8895;SDS011;4484;48.928;10.066;2023-11-21T03:32:21;4.70;;;1.80;;
8895;SDS011;4484;48.928;10.066;2023-11-21T03:34:55;4.33;;;1.73;;
8895;SDS011;4484;48.928;10.066;2023-11-21T03:37:24;4.60;;;1.53;;
8895;SDS011;4484;48.928;10.066;2023-11-21T03:39:57;6.17;;;1.90;;
8895;SDS011;4484;48.928;10.066;2023-11-21T03:42:24;3.60;;;1.70;;
8895;SDS011;4484;48.928;10.066;2023-11-21T03:44:54;4.87;;;1.90;;
8895;SDS011;4484;48.928;10.066;2023-11-21T03:47:22;4.27;;;1.37;;
8895;SDS011;4484;48.928;10.066;2023-11-21T03:49:49;2.83;;;1.70;;
8895;SDS011;4484;48.928;10.066;2023-11-21T03:52:16;2.17;;;1.70;;
8895;SDS011;4484;48.928;10.066;2023-11-21T03:54:43;3.63;;;1.67;;
8895;SDS011;4484;48.928;10.066;2023-11-21T03:57:11;4.13;;;1.63;;
8895;SDS011;4484;48.928;10.066;2023-11-21T03:59:42;3.40;;;2.10;;
8895;SDS011;4484;48.928;10.066;2023-11-21T04:02:09;6.10;;;1.87;;
8895;SDS011;4484;48.928;10.066;2023-11-21T04:04:36;3.00;;;1.47;;
8895;SDS011;4484;48.928;10.066;2023-11-21T04:07:04;2.70;;;1.50;;
8895;SDS011;4484;48.928;10.066;2023-11-21T04:09:31;3.77;;;1.90;;
8895;SDS011;4484;48.928;10.066;2023-11-21T04:11:58;4.50;;;1.70;;
8895;SDS011;4484;48.928;10.066;2023-11-21T04:14:25;4.67;;;1.50;;
8895;SDS011;4484;48.928;10.066;2023-11-21T04:16:53;3.50;;;1.40;;
8895;SDS011;4484;48.928;10.066;2023-11-21T04:19:20;3.57;;;1.50;;
8895;SDS011;4484;48.928;10.066;2023-11-21T04:21:47;1.80;;;1.30;;
8895;SDS011;4484;48.928;10.066;2023-11-21T04:24:15;1.87;;;1.20;;
8895;SDS011;4484;48.928;10.066;2023-11-21T04:26:43;2.37;;;1.30;;
8895;SDS011;4484;48.928;10.066;2023-11-21T04:29:10;3.40;;;1.10;;
8895;SDS011;4484;48.928;10.066;2023-11-21T04:31:37;4.00;;;1.40;;
8895;SDS011;4484;48.928;10.066;2023-11-21T04:34:05;5.43;;;1.60;;
8895;SDS011;4484;48.928;10.066;2023-11-21T04:36:31;2.17;;;1.40;;
8895;SDS011;4484;48.928;10.066;2023-11-21T04:38:58;4.73;;;1.37;;
8895;SDS011;4484;48.928;10.066;2023-11-21T04:41:25;3.47;;;1.33;;
8895;SDS011;4484;48.928;10.066;2023-11-21T04:43:53;8.17;;;1.80;;
8895;SDS011;4484;48.928;10.066;2023-11-21T04:46:20;1.80;;;1.43;;
8895;SDS011;4484;48.928;10.066;2023-11-21T04:48:48;4.23;;;1.47;;
8895;SDS011;4484;48.928;10.066;2023-11-21T04:51:15;2.17;;;1.47;;
8895;SDS011;4484;48.928;10.066;2023-11-21T04:53:42;2.93;;;1.00;;
8895;SDS011;4484;48.928;10.066;2023-11-21T04:56:09;4.37;;;1.70;;
8895;SDS011;4484;48.928;10.066;2023-11-21T04:58:36;2.67;;;1.20;;
8895;SDS011;4484;48.928;10.066;2023-11-21T05:01:03;3.63;;;1.40;;
8895;SDS011;4484;48.928;10.066;2023-11-21T05:03:34;2.03;;;1.40;;
8895;SDS011;4484;48.928;10.066;2023-11-21T05:06:01;2.40;;;1.10;;
8895;SDS011;4484;48.928;10.066;2023-11-21T05:08:28;2.60;;;1.50;;
8895;SDS011;4484;48.928;10.066;2023-11-21T05:10:55;4.40;;;1.60;;
8895;SDS011;4484;48.928;10.066;2023-11-21T05:13:22;3.83;;;1.33;;
8895;SDS011;4484;48.928;10.066;2023-11-21T05:15:54;4.73;;;1.40;;
8895;SDS011;4484;48.928;10.066;2023-11-21T05:18:25;6.47;;;1.33;;
8895;SDS011;4484;48.928;10.066;2023-11-21T05:20:53;2.63;;;1.20;;
8895;SDS011;4484;48.928;10.066;2023-11-21T05:23:20;2.07;;;1.20;;
8895;SDS011;4484;48.928;10.066;2023-11-21T05:25:47;1.83;;;1.00;;
8895;SDS011;4484;48.928;10.066;2023-11-21T05:28:14;3.60;;;1.10;;
8895;SDS011;4484;48.928;10.066;2023-11-21T05:30:41;1.70;;;1.10;;
8895;SDS011;4484;48.928;10.066;2023-11-21T05:33:08;5.67;;;3.20;;
8895;SDS011;4484;48.928;10.066;2023-11-21T05:35:36;5.23;;;3.10;;
8895;SDS011;4484;48.928;10.066;2023-11-21T05:38:03;3.60;;;2.80;;
8895;SDS011;4484;48.928;10.066;2023-11-21T05:40:31;8.07;;;4.17;;
8895;SDS011;4484;48.928;10.066;2023-11-21T05:42:59;4.77;;;2.87;;
8895;SDS011;4484;48.928;10.066;2023-11-21T05:45:26;3.73;;;2.40;;
8895;SDS011;4484;48.928;10.066;2023-11-21T05:47:53;5.53;;;2.77;;
8895;SDS011;4484;48.928;10.066;2023-11-21T05:50:20;3.83;;;2.20;;
8895;SDS011;4484;48.928;10.066;2023-11-21T05:52:47;2.93;;;1.67;;
8895;SDS011;4484;48.928;10.066;2023-11-21T05:55:15;3.70;;;1.33;;
8895;SDS011;4484;48.928;10.066;2023-11-21T05:57:43;1.20;;;1.10;;
8895;SDS011;4484;48.928;10.066;2023-11-21T06:00:11;2.20;;;1.43;;
8895;SDS011;4484;48.928;10.066;2023-11-21T06:02:48;2.27;;;1.30;;
8895;SDS011;4484;48.928;10.066;2023-11-21T06:05:23;2.10;;;1.40;;
8895;SDS011;4484;48.928;10.066;2023-11-21T06:07:54;2.40;;;1.40;;
8895;SDS011;4484;48.928;10.066;2023-11-21T06:10:26;1.37;;;1.10;;
8895;SDS011;4484;48.928;10.066;2023-11-21T06:12:55;3.50;;;1.70;;
8895;SDS011;4484;48.928;10.066;2023-11-21T06:15:22;4.10;;;2.00;;
8895;SDS011;4484;48.928;10.066;2023-11-21T06:17:50;4.70;;;1.97;;
8895;SDS011;4484;48.928;10.066;2023-11-21T06:20:21;1.60;;;1.50;;
8895;SDS011;4484;48.928;10.066;2023-11-21T06:22:49;2.27;;;1.60;;
8895;SDS011;4484;48.928;10.066;2023-11-21T06:25:17;2.93;;;1.90;;
8895;SDS011;4484;48.928;10.066;2023-11-21T06:27:45;2.20;;;1.50;;
8895;SDS011;4484;48.928;10.066;2023-11-21T06:30:17;7.87;;;1.80;;
8895;SDS011;4484;48.928;10.066;2023-11-21T06:32:46;4.93;;;2.07;;
8895;SDS011;4484;48.928;10.066;2023-11-21T06:35:14;2.87;;;1.67;;
8895;SDS011;4484;48.928;10.066;2023-11-21T06:37:43;9.17;;;6.50;;
8895;SDS011;4484;48.928;10.066;2023-11-21T06:40:15;6.10;;;3.77;;
8895;SDS011;4484;48.928;10.066;2023-11-21T06:42:45;3.73;;;2.43;;
8895;SDS011;4484;48.928;10.066;2023-11-21T06:45:13;5.27;;;1.83;;
8895;SDS011;4484;48.928;10.066;2023-11-21T06:47:41;4.63;;;2.10;;
8895;SDS011;4484;48.928;10.066;2023-11-21T06:50:09;6.77;;;2.40;;
8895;SDS011;4484;48.928;10.066;2023-11-21T06:52:36;2.30;;;2.10;;
8895;SDS011;4484;48.928;10.066;2023-11-21T06:55:03;2.33;;;2.03;;
8895;SDS011;4484;48.928;10.066;2023-11-21T06:57:31;4.53;;;2.07;;
8895;SDS011;4484;48.928;10.066;2023-11-21T06:59:58;3.70;;;2.23;;
8895;SDS011;4484;48.928;10.066;2023-11-21T07:02:26;2.60;;;2.40;;
8895;SDS011;4484;48.928;10.066;2023-11-21T07:04:53;2.40;;;2.20;;
8895;SDS011;4484;48.928;10.066;2023-11-21T07:07:20;3.50;;;2.63;;
8895;SDS011;4484;48.928;10.066;2023-11-21T07:09:47;3.93;;;2.43;;
8895;SDS011;4484;48.928;10.066;2023-11-21T07:12:15;5.20;;;2.80;;
8895;SDS011;4484;48.928;10.066;2023-11-21T07:14:42;3.13;;;2.77;;
8895;SDS011;4484;48.928;10.066;2023-11-21T07:17:11;8.60;;;3.20;;
8895;SDS011;4484;48.928;10.066;2023-11-21T07:19:38;6.13;;;4.10;;
8895;SDS011;4484;48.928;10.066;2023-11-21T07:22:05;4.57;;;3.57;;
8895;SDS011;4484;48.928;10.066;2023-11-21T07:24:32;4.53;;;3.47;;
8895;SDS011;4484;48.928;10.066;2023-11-21T07:27:00;4.87;;;3.47;;
8895;SDS011;4484;48.928;10.066;2023-11-21T07:29:27;3.17;;;2.87;;
8895;SDS011;4484;48.928;10.066;2023-11-21T07:31:56;6.40;;;2.40;;
8895;SDS011;4484;48.928;10.066;2023-11-21T07:34:23;2.47;;;2.10;;
8895;SDS011;4484;48.928;10.066;2023-11-21T07:36:50;4.93;;;2.50;;
8895;SDS011;4484;48.928;10.066;2023-11-21T07:39:17;3.73;;;2.57;;
8895;SDS011;4484;48.928;10.066;2023-11-21T07:41:44;5.50;;;2.50;;
8895;SDS011;4484;48.928;10.066;2023-11-21T07:44:18;4.83;;;2.97;;
8895;SDS011;4484;48.928;10.066;2023-11-21T07:46:46;3.60;;;2.27;;
8895;SDS011;4484;48.928;10.066;2023-11-21T07:49:13;2.83;;;2.30;;
8895;SDS011;4484;48.928;10.066;2023-11-21T07:51:43;2.57;;;2.37;;
8895;SDS011;4484;48.928;10.066;2023-11-21T07:54:10;5.07;;;2.70;;
8895;SDS011;4484;48.928;10.066;2023-11-21T07:56:37;3.20;;;2.70;;
8895;SDS011;4484;48.928;10.066;2023-11-21T07:59:04;4.07;;;2.53;;
8895;SDS011;4484;48.928;10.066;2023-11-21T08:01:31;3.53;;;2.57;;
8895;SDS011;4484;48.928;10.066;2023-11-21T08:03:59;3.37;;;2.40;;
8895;SDS011;4484;48.928;10.066;2023-11-21T08:06:30;2.83;;;2.03;;
8895;SDS011;4484;48.928;10.066;2023-11-21T08:08:57;3.40;;;2.17;;
8895;SDS011;4484;48.928;10.066;2023-11-21T08:11:24;2.20;;;2.00;;
8895;SDS011;4484;48.928;10.066;2023-11-21T08:13:52;6.27;;;1.60;;
8895;SDS011;4484;48.928;10.066;2023-11-21T08:16:20;3.63;;;1.90;;
8895;SDS011;4484;48.928;10.066;2023-11-21T08:18:47;3.50;;;2.03;;
8895;SDS011;4484;48.928;10.066;2023-11-21T08:21:14;2.97;;;2.20;;
8895;SDS011;4484;48.928;10.066;2023-11-21T08:23:41;3.60;;;2.30;;
8895;SDS011;4484;48.928;10.066;2023-11-21T08:26:08;3.43;;;2.03;;
8895;SDS011;4484;48.928;10.066;2023-11-21T08:28:35;2.67;;;1.60;;
8895;SDS011;4484;48.928;10.066;2023-11-21T08:31:02;3.53;;;1.90;;
8895;SDS011;4484;48.928;10.066;2023-11-21T08:33:30;3.13;;;1.67;;
8895;SDS011;4484;48.928;10.066;2023-11-21T08:35:57;4.17;;;1.90;;
8895;SDS011;4484;48.928;10.066;2023-11-21T08:38:24;6.20;;;1.90;;
8895;SDS011;4484;48.928;10.066;2023-11-21T08:40:51;2.83;;;1.50;;
8895;SDS011;4484;48.928;10.066;2023-11-21T08:43:18;2.70;;;2.07;;
8895;SDS011;4484;48.928;10.066;2023-11-21T08:45:46;1.80;;;1.50;;
8895;SDS011;4484;48.928;10.066;2023-11-21T08:48:13;1.70;;;1.40;;
8895;SDS011;4484;48.928;10.066;2023-11-21T08:50:40;7.47;;;2.17;;
8895;SDS011;4484;48.928;10.066;2023-11-21T08:53:07;7.37;;;2.60;;
8895;SDS011;4484;48.928;10.066;2023-11-21T08:55:34;19.30;;;3.63;;
8895;SDS011;4484;48.928;10.066;2023-11-21T08:58:04;12.97;;;2.70;;
8895;SDS011;4484;48.928;10.066;2023-11-21T09:00:32;9.67;;;1.80;;
8895;SDS011;4484;48.928;10.066;2023-11-21T09:03:00;3.57;;;1.83;;
8895;SDS011;4484;48.928;10.066;2023-11-21T09:05:28;3.20;;;1.20;;
8895;SDS011;4484;48.928;10.066;2023-11-21T09:07:55;4.03;;;1.27;;
8895;SDS011;4484;48.928;10.066;2023-11-21T09:10:22;1.77;;;1.30;;
8895;SDS011;4484;48.928;10.066;2023-11-21T09:12:50;3.80;;;1.13;;
8895;SDS011;4484;48.928;10.066;2023-11-21T09:15:18;1.43;;;1.10;;
8895;SDS011;4484;48.928;10.066;2023-11-21T09:17:47;19.10;;;3.20;;
8895;SDS011;4484;48.928;10.066;2023-11-21T09:20:14;15.00;;;2.93;;
8895;SDS011;4484;48.928;10.066;2023-11-21T09:22:42;8.37;;;1.80;;
8895;SDS011;4484;48.928;10.066;2023-11-21T09:25:11;6.27;;;2.37;;
8895;SDS011;4484;48.928;10.066;2023-11-21T09:27:39;7.53;;;2.00;;
8895;SDS011;4484;48.928;10.066;2023-11-21T09:30:06;1.83;;;1.33;;
8895;SDS011;4484;48.928;10.066;2023-11-21T09:32:39;2.93;;;1.37;;
8895;SDS011;4484;48.928;10.066;2023-11-21T09:35:07;2.67;;;1.93;;
8895;SDS011;4484;48.928;10.066;2023-11-21T09:37:35;1.93;;;1.27;;
8895;SDS011;4484;48.928;10.066;2023-11-21T09:40:02;2.57;;;1.40;;
8895;SDS011;4484;48.928;10.066;2023-11-21T09:42:36;19.03;;;3.10;;
8895;SDS011;4484;48.928;10.066;2023-11-21T09:45:15;14.17;;;2.10;;
8895;SDS011;4484;48.928;10.066;2023-11-21T09:47:44;1.87;;;1.60;;
8895;SDS011;4484;48.928;10.066;2023-11-21T09:50:14;1.83;;;1.33;;
8895;SDS011;4484;48.928;10.066;2023-11-21T09:55:28;13.63;;;1.93;;
8895;SDS011;4484;48.928;10.066;2023-11-21T09:57:56;28.27;;;3.50;;
8895;SDS011;4484;48.928;10.066;2023-11-21T10:00:23;22.20;;;3.27;;
8895;SDS011;4484;48.928;10.066;2023-11-21T10:02:50;35.87;;;3.43;;
8895;SDS011;4484;48.928;10.066;2023-11-21T10:05:19;47.67;;;7.40;;
8895;SDS011;4484;48.928;10.066;2023-11-21T10:07:51;31.47;;;5.43;;
8895;SDS011;4484;48.928;10.066;2023-11-21T10:10:19;31.50;;;4.23;;
8895;SDS011;4484;48.928;10.066;2023-11-21T10:12:51;7.70;;;2.20;;
8895;SDS011;4484;48.928;10.066;2023-11-21T10:15:23;2.73;;;1.80;;
8895;SDS011;4484;48.928;10.066;2023-11-21T10:17:55;1.80;;;1.20;;
8895;SDS011;4484;48.928;10.066;2023-11-21T10:20:23;1.30;;;1.20;;
8895;SDS011;4484;48.928;10.066;2023-11-21T10:22:50;1.30;;;1.20;;
8895;SDS011;4484;48.928;10.066;2023-11-21T10:25:17;1.97;;;1.30;;
8895;SDS011;4484;48.928;10.066;2023-11-21T10:27:47;2.13;;;1.47;;
8895;SDS011;4484;48.928;10.066;2023-11-21T10:30:18;1.97;;;1.10;;
8895;SDS011;4484;48.928;10.066;2023-11-21T10:32:45;1.40;;;1.23;;
8895;SDS011;4484;48.928;10.066;2023-11-21T10:35:13;1.30;;;1.03;;
8895;SDS011;4484;48.928;10.066;2023-11-21T10:37:40;1.07;;;0.97;;
8895;SDS011;4484;48.928;10.066;2023-11-21T10:40:07;1.07;;;0.97;;
8895;SDS011;4484;48.928;10.066;2023-11-21T10:42:39;3.07;;;1.20;;
8895;SDS011;4484;48.928;10.066;2023-11-21T10:45:09;0.97;;;0.90;;
8895;SDS011;4484;48.928;10.066;2023-11-21T10:47:40;1.27;;;0.90;;
8895;SDS011;4484;48.928;10.066;2023-11-21T10:50:08;0.83;;;0.70;;
8895;SDS011;4484;48.928;10.066;2023-11-21T10:52:39;1.87;;;1.07;;
8895;SDS011;4484;48.928;10.066;2023-11-21T10:55:16;0.80;;;0.60;;
8895;SDS011;4484;48.928;10.066;2023-11-21T10:57:46;2.13;;;0.63;;
8895;SDS011;4484;48.928;10.066;2023-11-21T11:00:15;5.03;;;0.80;;
8895;SDS011;4484;48.928;10.066;2023-11-21T11:02:46;1.90;;;0.97;;
8895;SDS011;4484;48.928;10.066;2023-11-21T11:05:19;0.50;;;0.50;;
8895;SDS011;4484;48.928;10.066;2023-11-21T11:07:48;1.90;;;1.07;;
8895;SDS011;4484;48.928;10.066;2023-11-21T11:10:21;1.97;;;0.90;;
8895;SDS011;4484;48.928;10.066;2023-11-21T11:12:49;3.97;;;2.17;;
8895;SDS011;4484;48.928;10.066;2023-11-21T11:15:19;3.87;;;2.30;;
8895;SDS011;4484;48.928;10.066;2023-11-21T11:17:46;11.80;;;6.03;;
8895;SDS011;4484;48.928;10.066;2023-11-21T11:20:14;10.60;;;5.67;;
8895;SDS011;4484;48.928;10.066;2023-11-21T11:25:34;10.97;;;5.50;;
8895;SDS011;4484;48.928;10.066;2023-11-21T11:28:21;10.50;;;6.13;;
8895;SDS011;4484;48.928;10.066;2023-11-21T11:34:17;3.30;;;2.27;;
8895;SDS011;4484;48.928;10.066;2023-11-21T11:37:04;3.20;;;2.40;;
8895;SDS011;4484;48.928;10.066;2023-11-21T11:39:37;1.83;;;1.50;;
8895;SDS011;4484;48.928;10.066;2023-11-21T11:42:06;1.53;;;1.10;;
8895;SDS011;4484;48.928;10.066;2023-11-21T11:52:46;1.10;;;0.80;;
8895;SDS011;4484;48.928;10.066;2023-11-21T11:55:16;1.07;;;0.70;;
8895;SDS011;4484;48.928;10.066;2023-11-21T12:02:52;1.40;;;0.80;;
8895;SDS011;4484;48.928;10.066;2023-11-21T12:05:23;0.93;;;0.80;;
8895;SDS011;4484;48.928;10.066;2023-11-21T12:07:54;2.23;;;1.07;;
8895;SDS011;4484;48.928;10.066;2023-11-21T12:10:25;1.70;;;1.00;;
8895;SDS011;4484;48.928;10.066;2023-11-21T12:12:54;2.27;;;1.10;;
8895;SDS011;4484;48.928;10.066;2023-11-21T12:15:23;1.57;;;0.70;;
8895;SDS011;4484;48.928;10.066;2023-11-21T12:17:52;0.50;;;0.50;;
8895;SDS011;4484;48.928;10.066;2023-11-21T12:20:20;0.93;;;0.70;;
8895;SDS011;4484;48.928;10.066;2023-11-21T12:22:51;1.67;;;0.80;;
8895;SDS011;4484;48.928;10.066;2023-11-21T12:25:23;1.23;;;0.60;;
8895;SDS011;4484;48.928;10.066;2023-11-21T12:27:53;0.70;;;0.53;;
8895;SDS011;4484;48.928;10.066;2023-11-21T12:30:21;2.17;;;0.63;;
8895;SDS011;4484;48.928;10.066;2023-11-21T12:32:50;0.40;;;0.40;;
8895;SDS011;4484;48.928;10.066;2023-11-21T12:35:19;0.47;;;0.47;;
8895;SDS011;4484;48.928;10.066;2023-11-21T12:37:48;0.43;;;0.43;;
8895;SDS011;4484;48.928;10.066;2023-11-21T12:40:15;0.60;;;0.40;;
8895;SDS011;4484;48.928;10.066;2023-11-21T12:42:47;0.70;;;0.53;;
8895;SDS011;4484;48.928;10.066;2023-11-21T12:47:44;2.33;;;0.30;;
8895;SDS011;4484;48.928;10.066;2023-11-21T12:50:11;0.63;;;0.33;;
8895;SDS011;4484;48.928;10.066;2023-11-21T12:52:44;0.30;;;0.30;;
8895;SDS011;4484;48.928;10.066;2023-11-21T12:55:18;0.10;;;0.10;;
8895;SDS011;4484;48.928;10.066;2023-11-21T12:57:52;0.20;;;0.20;;
8895;SDS011;4484;48.928;10.066;2023-11-21T13:00:43;0.20;;;0.20;;
8895;SDS011;4484;48.928;10.066;2023-11-21T13:03:13;0.30;;;0.30;;
8895;SDS011;4484;48.928;10.066;2023-11-21T13:05:47;0.30;;;0.27;;
8895;SDS011;4484;48.928;10.066;2023-11-21T13:08:18;0.80;;;0.50;;
8895;SDS011;4484;48.928;10.066;2023-11-21T13:10:49;0.57;;;0.20;;
8895;SDS011;4484;48.928;10.066;2023-11-21T13:13:18;0.40;;;0.20;;
8895;SDS011;4484;48.928;10.066;2023-11-21T13:18:23;0.30;;;0.30;;
8895;SDS011;4484;48.928;10.066;2023-11-21T13:20:53;0.33;;;0.33;;
8895;SDS011;4484;48.928;10.066;2023-11-21T13:23:21;0.77;;;0.27;;
8895;SDS011;4484;48.928;10.066;2023-11-21T13:25:49;0.30;;;0.30;;
8895;SDS011;4484;48.928;10.066;2023-11-21T13:28:27;0.40;;;0.40;;
8895;SDS011;4484;48.928;10.066;2023-11-21T13:30:59;0.30;;;0.30;;
8895;SDS011;4484;48.928;10.066;2023-11-21T13:33:36;0.40;;;0.40;;
8895;SDS011;4484;48.928;10.066;2023-11-21T13:36:09;0.40;;;0.37;;
8895;SDS011;4484;48.928;10.066;2023-11-21T13:38:37;0.60;;;0.50;;
8895;SDS011;4484;48.928;10.066;2023-11-21T13:41:09;0.87;;;0.80;;
8895;SDS011;4484;48.928;10.066;2023-11-21T13:43:38;0.70;;;0.70;;
8895;SDS011;4484;48.928;10.066;2023-11-21T13:46:05;0.93;;;0.60;;
8895;SDS011;4484;48.928;10.066;2023-11-21T13:48:40;1.47;;;0.90;;
8895;SDS011;4484;48.928;10.066;2023-11-21T13:51:09;0.60;;;0.60;;
8895;SDS011;4484;48.928;10.066;2023-11-21T13:53:47;1.43;;;0.70;;
8895;SDS011;4484;48.928;10.066;2023-11-21T13:56:16;1.43;;;0.60;;
8895;SDS011;4484;48.928;10.066;2023-11-21T13:58:48;0.80;;;0.70;;
8895;SDS011;4484;48.928;10.066;2023-11-21T14:01:19;0.97;;;0.60;;
8895;SDS011;4484;48.928;10.066;2023-11-21T14:03:59;0.50;;;0.50;;
8895;SDS011;4484;48.928;10.066;2023-11-21T14:06:43;1.20;;;0.50;;
8895;SDS011;4484;48.928;10.066;2023-11-21T14:09:16;0.40;;;0.40;;
8895;SDS011;4484;48.928;10.066;2023-11-21T14:12:02;0.70;;;0.50;;
8895;SDS011;4484;48.928;10.066;2023-11-21T14:14:32;1.33;;;0.60;;
8895;SDS011;4484;48.928;10.066;2023-11-21T14:17:00;1.00;;;0.90;;
8895;SDS011;4484;48.928;10.066;2023-11-21T14:19:33;0.70;;;0.70;;
8895;SDS011;4484;48.928;10.066;2023-11-21T14:22:00;0.53;;;0.50;;
8895;SDS011;4484;48.928;10.066;2023-11-21T14:24:27;1.13;;;0.50;;
8895;SDS011;4484;48.928;10.066;2023-11-21T14:26:55;1.07;;;0.90;;
8895;SDS011;4484;48.928;10.066;2023-11-21T14:29:22;1.00;;;0.90;;
8895;SDS011;4484;48.928;10.066;2023-11-21T14:31:50;1.00;;;0.90;;
8895;SDS011;4484;48.928;10.066;2023-11-21T14:34:18;0.87;;;0.80;;
8895;SDS011;4484;48.928;10.066;2023-11-21T14:36:48;1.17;;;0.93;;
8895;SDS011;4484;48.928;10.066;2023-11-21T14:39:16;1.37;;;1.27;;
8895;SDS011;4484;48.928;10.066;2023-11-21T14:41:57;1.33;;;1.23;;
8895;SDS011;4484;48.928;10.066;2023-11-21T14:44:25;1.40;;;1.30;;
8895;SDS011;4484;48.928;10.066;2023-11-21T14:46:55;1.47;;;1.27;;
8895;SDS011;4484;48.928;10.066;2023-11-21T14:49:24;1.73;;;1.37;;
8895;SDS011;4484;48.928;10.066;2023-11-21T14:51:54;1.77;;;1.57;;
8895;SDS011;4484;48.928;10.066;2023-11-21T14:54:27;1.93;;;1.43;;
8895;SDS011;4484;48.928;10.066;2023-11-21T14:57:08;1.40;;;1.30;;
8895;SDS011;4484;48.928;10.066;2023-11-21T14:59:46;1.20;;;0.90;;
8895;SDS011;4484;48.928;10.066;2023-11-21T15:02:17;1.13;;;1.03;;
8895;SDS011;4484;48.928;10.066;2023-11-21T15:04:49;1.67;;;1.00;;
8895;SDS011;4484;48.928;10.066;2023-11-21T15:07:19;1.63;;;1.03;;
8895;SDS011;4484;48.928;10.066;2023-11-21T15:09:46;1.13;;;1.03;;
8895;SDS011;4484;48.928;10.066;2023-11-21T15:12:13;1.57;;;0.93;;
8895;SDS011;4484;48.928;10.066;2023-11-21T15:14:46;2.60;;;1.17;;
8895;SDS011;4484;48.928;10.066;2023-11-21T15:17:19;1.40;;;1.20;;
8895;SDS011;4484;48.928;10.066;2023-11-21T15:19:53;2.07;;;1.40;;
8895;SDS011;4484;48.928;10.066;2023-11-21T15:22:20;2.67;;;1.77;;
8895;SDS011;4484;48.928;10.066;2023-11-21T15:24:48;2.53;;;1.83;;
8895;SDS011;4484;48.928;10.066;2023-11-21T15:27:16;3.30;;;1.80;;
8895;SDS011;4484;48.928;10.066;2023-11-21T15:29:43;2.37;;;1.73;;
8895;SDS011;4484;48.928;10.066;2023-11-21T15:32:11;1.93;;;1.53;;
8895;SDS011;4484;48.928;10.066;2023-11-21T15:34:38;6.40;;;2.43;;
8895;SDS011;4484;48.928;10.066;2023-11-21T15:37:06;2.10;;;1.87;;